createdAt,value
2018-04-12T00:00:07.590Z,0.00
2018-04-12T00:01:07.819Z,0.00
2018-04-12T00:02:08.045Z,0.00
2018-04-12T00:03:08.277Z,0.00
2018-04-12T00:04:08.503Z,0.00
2018-04-12T00:05:08.732Z,0.00
2018-04-12T00:06:08.961Z,0.00
2018-04-12T00:07:09.188Z,0.00
2018-04-12T00:08:09.416Z,0.00
2018-04-12T00:09:09.645Z,0.00
2018-04-12T00:10:09.875Z,0.00
2018-04-12T00:11:10.104Z,0.00
2018-04-12T00:12:10.331Z,0.00
2018-04-12T00:13:10.564Z,0.00
2018-04-12T00:14:10.792Z,0.00
2018-04-12T00:15:11.016Z,0.00
2018-04-12T00:16:11.249Z,0.00
2018-04-12T00:17:11.476Z,0.00
2018-04-12T00:18:11.702Z,0.00
2018-04-12T00:19:11.928Z,0.00
2018-04-12T00:20:12.157Z,0.00
2018-04-12T00:21:12.386Z,0.00
2018-04-12T00:22:12.613Z,0.00
2018-04-12T00:23:12.841Z,0.00
2018-04-12T00:24:13.072Z,0.00
2018-04-12T00:25:13.296Z,0.00
2018-04-12T00:26:13.525Z,0.00
2018-04-12T00:27:13.749Z,0.00
2018-04-12T00:28:13.988Z,0.00
2018-04-12T00:29:14.223Z,0.00
2018-04-12T00:30:14.443Z,0.00
2018-04-12T00:31:14.670Z,0.00
2018-04-12T00:32:14.900Z,0.00
2018-04-12T00:33:15.128Z,0.00
2018-04-12T00:34:15.359Z,0.00
2018-04-12T00:35:15.594Z,0.00
2018-04-12T00:36:15.816Z,0.00
2018-04-12T00:37:16.049Z,0.00
2018-04-12T00:38:16.272Z,0.00
2018-04-12T00:39:16.499Z,0.00
2018-04-12T00:40:16.728Z,0.00
2018-04-12T00:41:16.960Z,0.00
2018-04-12T00:42:17.183Z,0.00
2018-04-12T00:43:17.412Z,0.00
2018-04-12T00:44:17.641Z,0.00
2018-04-12T00:45:17.870Z,0.00
2018-04-12T00:46:18.097Z,0.00
2018-04-12T00:47:18.330Z,0.00
2018-04-12T00:48:18.559Z,0.00
2018-04-12T00:49:18.781Z,0.00
2018-04-12T00:50:19.011Z,0.00
2018-04-12T00:51:19.236Z,0.00
2018-04-12T00:52:19.467Z,0.00
2018-04-12T00:53:19.699Z,0.00
2018-04-12T00:54:19.920Z,0.00
2018-04-12T00:55:20.148Z,0.00
2018-04-12T00:56:20.369Z,0.00
2018-04-12T00:57:20.617Z,0.00
2018-04-12T00:58:20.844Z,0.00
2018-04-12T00:59:21.074Z,0.00
2018-04-12T01:00:21.303Z,0.00
2018-04-12T01:01:21.531Z,0.00
2018-04-12T01:02:21.760Z,0.00
2018-04-12T01:03:21.992Z,0.00
2018-04-12T01:04:22.221Z,0.00
2018-04-12T01:05:22.451Z,0.00
2018-04-12T01:06:22.677Z,0.00
2018-04-12T01:07:22.905Z,0.00
2018-04-12T01:08:23.136Z,0.00
2018-04-12T01:09:23.365Z,0.00
2018-04-12T01:10:23.593Z,0.00
2018-04-12T01:11:23.821Z,0.00
2018-04-12T01:12:24.048Z,0.00
2018-04-12T01:13:24.280Z,0.00
2018-04-12T01:14:24.509Z,0.00
2018-04-12T01:15:24.735Z,0.00
2018-04-12T01:16:24.962Z,0.00
2018-04-12T01:17:25.189Z,0.00
2018-04-12T01:18:25.417Z,0.00
2018-04-12T01:19:25.645Z,0.00
2018-04-12T01:20:25.878Z,0.00
2018-04-12T01:21:26.104Z,0.00
2018-04-12T01:22:26.343Z,0.00
2018-04-12T01:23:26.563Z,0.00
2018-04-12T01:24:26.790Z,0.00
2018-04-12T01:25:27.019Z,0.00
2018-04-12T01:26:27.246Z,0.00
2018-04-12T01:27:27.476Z,0.00
2018-04-12T01:28:27.702Z,0.00
2018-04-12T01:29:27.928Z,0.00
2018-04-12T01:30:28.155Z,0.00
2018-04-12T01:31:28.383Z,0.00
2018-04-12T01:32:28.614Z,0.00
2018-04-12T01:33:28.844Z,0.00
2018-04-12T01:34:29.073Z,0.00
2018-04-12T01:35:29.301Z,0.00
2018-04-12T01:36:29.529Z,0.00
2018-04-12T01:37:29.758Z,0.00
2018-04-12T01:38:29.985Z,0.00
2018-04-12T01:39:30.215Z,0.00
2018-04-12T01:40:30.442Z,0.00
2018-04-12T01:41:30.669Z,0.00
2018-04-12T01:42:30.898Z,0.00
2018-04-12T01:43:31.127Z,0.00
2018-04-12T01:44:31.355Z,0.00
2018-04-12T01:45:31.584Z,0.00
2018-04-12T01:46:31.812Z,0.00
2018-04-12T01:47:32.045Z,0.00
2018-04-12T01:48:32.272Z,0.00
2018-04-12T01:49:32.501Z,0.00
2018-04-12T01:50:32.731Z,0.00
2018-04-12T01:51:32.958Z,0.00
2018-04-12T01:52:33.187Z,0.00
2018-04-12T01:53:33.412Z,0.00
2018-04-12T01:54:33.634Z,0.00
2018-04-12T01:55:33.862Z,0.00
2018-04-12T01:56:34.093Z,0.00
2018-04-12T01:57:34.322Z,0.00
2018-04-12T01:58:34.548Z,0.00
2018-04-12T01:59:34.789Z,0.00
2018-04-12T02:00:35.007Z,0.00
2018-04-12T02:01:35.238Z,0.00
2018-04-12T02:02:35.465Z,0.00
2018-04-12T02:03:35.692Z,0.00
2018-04-12T02:04:35.918Z,0.00
2018-04-12T02:05:36.146Z,0.00
2018-04-12T02:06:36.375Z,0.00
2018-04-12T02:07:36.604Z,0.00
2018-04-12T02:08:36.837Z,0.00
2018-04-12T02:09:37.065Z,0.00
2018-04-12T02:10:37.300Z,0.00
2018-04-12T02:11:37.525Z,0.00
2018-04-12T02:12:37.755Z,0.00
2018-04-12T02:13:37.985Z,0.00
2018-04-12T02:14:38.212Z,0.00
2018-04-12T02:15:38.440Z,0.00
2018-04-12T02:16:38.671Z,0.00
2018-04-12T02:17:38.900Z,0.00
2018-04-12T02:18:39.129Z,0.00
2018-04-12T02:19:39.359Z,0.00
2018-04-12T02:20:39.588Z,0.00
2018-04-12T02:21:39.817Z,0.00
2018-04-12T02:22:40.057Z,0.00
2018-04-12T02:23:40.275Z,0.00
2018-04-12T02:24:40.503Z,0.00
2018-04-12T02:25:40.733Z,0.00
2018-04-12T02:26:40.962Z,0.00
2018-04-12T02:27:41.191Z,0.00
2018-04-12T02:28:41.421Z,0.00
2018-04-12T02:29:41.648Z,0.00
2018-04-12T02:30:41.879Z,0.00
2018-04-12T02:31:42.108Z,0.00
2018-04-12T02:32:42.335Z,0.00
2018-04-12T02:33:42.570Z,0.00
2018-04-12T02:34:42.794Z,0.00
2018-04-12T02:35:43.032Z,0.00
2018-04-12T02:36:43.261Z,0.00
2018-04-12T02:37:43.490Z,0.00
2018-04-12T02:38:43.718Z,0.00
2018-04-12T02:39:43.944Z,0.00
2018-04-12T02:40:44.176Z,0.00
2018-04-12T02:41:44.407Z,0.00
2018-04-12T02:42:44.636Z,0.00
2018-04-12T02:43:44.867Z,0.00
2018-04-12T02:44:45.094Z,0.00
2018-04-12T02:45:45.322Z,0.00
2018-04-12T02:46:45.554Z,0.00
2018-04-12T02:47:45.781Z,0.00
2018-04-12T02:48:46.015Z,0.00
2018-04-12T02:49:46.243Z,0.00
2018-04-12T02:50:46.473Z,0.00
2018-04-12T02:51:46.697Z,0.00
2018-04-12T02:52:46.923Z,0.00
2018-04-12T02:53:47.154Z,0.00
2018-04-12T02:54:47.383Z,0.00
2018-04-12T02:55:47.613Z,0.00
2018-04-12T02:56:47.841Z,0.00
2018-04-12T02:57:48.069Z,0.00
2018-04-12T02:58:48.297Z,0.00
2018-04-12T02:59:48.528Z,0.00
2018-04-12T03:00:48.755Z,0.00
2018-04-12T03:01:48.984Z,0.00
2018-04-12T03:02:49.215Z,0.00
2018-04-12T03:03:49.442Z,0.00
2018-04-12T03:04:49.672Z,0.00
2018-04-12T03:05:49.900Z,0.00
2018-04-12T03:06:50.130Z,0.00
2018-04-12T03:07:50.361Z,0.00
2018-04-12T03:08:50.591Z,0.00
2018-04-12T03:09:50.818Z,0.00
2018-04-12T03:10:51.047Z,0.00
2018-04-12T03:11:51.274Z,0.00
2018-04-12T03:12:51.503Z,0.00
2018-04-12T03:13:51.733Z,0.00
2018-04-12T03:14:51.964Z,0.00
2018-04-12T03:15:52.190Z,0.00
2018-04-12T03:16:52.419Z,0.00
2018-04-12T03:17:52.649Z,0.00
2018-04-12T03:18:52.877Z,0.00
2018-04-12T03:19:53.108Z,0.00
2018-04-12T03:20:53.337Z,0.00
2018-04-12T03:21:53.565Z,0.00
2018-04-12T03:22:53.796Z,0.00
2018-04-12T03:23:54.030Z,0.00
2018-04-12T03:24:54.254Z,0.00
2018-04-12T03:25:54.485Z,0.00
2018-04-12T03:26:54.716Z,0.00
2018-04-12T03:27:54.942Z,0.00
2018-04-12T03:28:55.176Z,0.00
2018-04-12T03:29:55.418Z,0.00
2018-04-12T03:30:55.635Z,0.00
2018-04-12T03:31:55.862Z,0.00
2018-04-12T03:32:56.094Z,0.00
2018-04-12T03:33:56.320Z,0.00
2018-04-12T03:34:56.548Z,0.00
2018-04-12T03:35:56.777Z,0.00
2018-04-12T03:36:57.006Z,0.00
2018-04-12T03:37:57.235Z,0.00
2018-04-12T03:38:57.464Z,0.00
2018-04-12T03:39:57.694Z,0.00
2018-04-12T03:40:57.920Z,0.00
2018-04-12T03:41:58.153Z,0.00
2018-04-12T03:42:58.377Z,0.00
2018-04-12T03:43:58.608Z,0.00
2018-04-12T03:44:58.836Z,0.00
2018-04-12T03:45:59.062Z,0.00
2018-04-12T03:46:59.291Z,0.00
2018-04-12T03:47:59.520Z,0.00
2018-04-12T03:48:59.766Z,0.00
2018-04-12T03:49:59.987Z,0.00
2018-04-12T03:51:00.207Z,0.00
2018-04-12T03:52:00.438Z,0.00
2018-04-12T03:53:00.665Z,0.00
2018-04-12T03:54:00.895Z,0.00
2018-04-12T03:55:01.123Z,0.00
2018-04-12T03:56:01.357Z,0.00
2018-04-12T03:57:01.582Z,0.00
2018-04-12T03:58:01.812Z,0.00
2018-04-12T03:59:02.041Z,0.00
2018-04-12T04:00:02.270Z,0.00
2018-04-12T04:01:02.499Z,0.00
2018-04-12T04:02:02.772Z,0.00
2018-04-12T04:03:02.958Z,0.00
2018-04-12T04:04:03.183Z,0.00
2018-04-12T04:05:03.412Z,0.00
2018-04-12T04:06:03.641Z,0.00
2018-04-12T04:07:03.870Z,0.00
2018-04-12T04:08:04.102Z,0.00
2018-04-12T04:09:04.327Z,0.00
2018-04-12T04:10:04.557Z,0.00
2018-04-12T04:11:04.786Z,0.00
2018-04-12T04:12:05.016Z,0.00
2018-04-12T04:13:05.247Z,0.00
2018-04-12T04:14:05.477Z,0.00
2018-04-12T04:15:05.704Z,0.00
2018-04-12T04:16:05.936Z,0.00
2018-04-12T04:17:06.162Z,0.00
2018-04-12T04:18:06.400Z,0.00
2018-04-12T04:19:06.620Z,0.00
2018-04-12T04:20:06.851Z,0.00
2018-04-12T04:21:07.079Z,0.00
2018-04-12T04:22:07.308Z,0.00
2018-04-12T04:23:07.538Z,0.00
2018-04-12T04:24:07.772Z,0.00
2018-04-12T04:25:07.997Z,0.00
2018-04-12T04:26:08.227Z,0.00
2018-04-12T04:27:08.464Z,0.00
2018-04-12T04:28:08.692Z,0.00
2018-04-12T04:29:08.923Z,0.00
2018-04-12T04:30:09.154Z,0.00
2018-04-12T04:31:09.381Z,0.00
2018-04-12T04:32:09.611Z,0.00
2018-04-12T04:33:09.840Z,0.00
2018-04-12T04:34:10.068Z,0.00
2018-04-12T04:35:10.297Z,0.00
2018-04-12T04:36:10.527Z,0.00
2018-04-12T04:37:10.756Z,0.00
2018-04-12T04:38:10.984Z,0.00
2018-04-12T04:39:11.214Z,0.00
2018-04-12T04:40:11.447Z,5.63
2018-04-12T04:41:11.675Z,5.63
2018-04-12T04:42:11.904Z,5.63
2018-04-12T04:43:12.134Z,5.63
2018-04-12T04:44:12.367Z,5.63
2018-04-12T04:45:12.591Z,5.63
2018-04-12T04:46:12.821Z,5.63
2018-04-12T04:47:13.054Z,5.63
2018-04-12T04:48:13.294Z,5.63
2018-04-12T04:49:13.509Z,11.25
2018-04-12T04:50:13.742Z,11.25
2018-04-12T04:51:13.968Z,11.25
2018-04-12T04:52:14.198Z,11.25
2018-04-12T04:53:14.427Z,16.88
2018-04-12T04:54:14.656Z,16.88
2018-04-12T04:55:14.888Z,16.88
2018-04-12T04:56:15.118Z,22.50
2018-04-12T04:57:15.345Z,22.50
2018-04-12T04:58:15.575Z,28.13
2018-04-12T04:59:15.807Z,28.13
2018-04-12T05:00:16.033Z,33.75
2018-04-12T05:01:16.263Z,33.75
2018-04-12T05:02:16.492Z,39.38
2018-04-12T05:03:16.723Z,39.38
2018-04-12T05:04:16.954Z,45.00
2018-04-12T05:05:17.182Z,45.00
2018-04-12T05:06:17.410Z,50.63
2018-04-12T05:07:17.657Z,50.63
2018-04-12T05:08:17.872Z,50.63
2018-04-12T05:09:18.098Z,56.25
2018-04-12T05:10:18.324Z,56.25
2018-04-12T05:11:18.555Z,61.88
2018-04-12T05:12:18.823Z,61.88
2018-04-12T05:13:19.013Z,61.88
2018-04-12T05:14:19.243Z,67.50
2018-04-12T05:15:19.473Z,78.75
2018-04-12T05:16:19.706Z,84.38
2018-04-12T05:17:19.932Z,90.00
2018-04-12T05:18:20.162Z,90.00
2018-04-12T05:19:20.390Z,90.00
2018-04-12T05:20:20.620Z,101.25
2018-04-12T05:21:20.849Z,101.25
2018-04-12T05:22:21.079Z,112.50
2018-04-12T05:23:21.309Z,118.13
2018-04-12T05:24:21.538Z,135.00
2018-04-12T05:25:21.768Z,151.88
2018-04-12T05:26:21.997Z,163.13
2018-04-12T05:27:22.231Z,174.38
2018-04-12T05:28:22.457Z,180.00
2018-04-12T05:29:22.689Z,185.63
2018-04-12T05:30:22.916Z,191.25
2018-04-12T05:31:23.146Z,202.50
2018-04-12T05:32:23.377Z,208.13
2018-04-12T05:33:23.606Z,213.75
2018-04-12T05:34:23.840Z,219.38
2018-04-12T05:35:24.066Z,219.38
2018-04-12T05:36:24.296Z,225.00
2018-04-12T05:37:24.526Z,225.00
2018-04-12T05:38:24.756Z,225.00
2018-04-12T05:39:24.987Z,219.38
2018-04-12T05:40:25.218Z,208.13
2018-04-12T05:41:25.450Z,180.00
2018-04-12T05:42:25.679Z,168.75
2018-04-12T05:43:25.909Z,163.13
2018-04-12T05:44:26.138Z,174.38
2018-04-12T05:45:26.370Z,180.00
2018-04-12T05:46:26.634Z,180.00
2018-04-12T05:47:26.836Z,180.00
2018-04-12T05:48:27.058Z,180.00
2018-04-12T05:49:27.292Z,191.25
2018-04-12T05:50:27.522Z,191.25
2018-04-12T05:51:27.752Z,202.50
2018-04-12T05:52:27.983Z,180.00
2018-04-12T05:53:28.212Z,185.63
2018-04-12T05:54:28.443Z,185.63
2018-04-12T05:55:28.672Z,174.38
2018-04-12T05:56:28.902Z,168.75
2018-04-12T05:57:29.135Z,157.50
2018-04-12T05:58:29.365Z,146.25
2018-04-12T05:59:29.640Z,140.63
2018-04-12T06:00:29.829Z,140.63
2018-04-12T06:01:30.061Z,140.63
2018-04-12T06:02:30.288Z,135.00
2018-04-12T06:03:30.519Z,135.00
2018-04-12T06:04:30.750Z,135.00
2018-04-12T06:05:30.981Z,135.00
2018-04-12T06:06:31.211Z,135.00
2018-04-12T06:07:31.439Z,135.00
2018-04-12T06:08:31.672Z,140.63
2018-04-12T06:09:31.901Z,135.00
2018-04-12T06:10:32.134Z,140.63
2018-04-12T06:11:32.364Z,140.63
2018-04-12T06:12:32.596Z,135.00
2018-04-12T06:13:32.827Z,135.00
2018-04-12T06:14:33.061Z,135.00
2018-04-12T06:15:33.286Z,135.00
2018-04-12T06:16:33.518Z,135.00
2018-04-12T06:17:33.747Z,135.00
2018-04-12T06:18:33.978Z,135.00
2018-04-12T06:19:34.203Z,129.38
2018-04-12T06:20:34.438Z,135.00
2018-04-12T06:21:34.665Z,140.63
2018-04-12T06:22:34.898Z,140.63
2018-04-12T06:23:35.127Z,146.25
2018-04-12T06:24:35.364Z,151.88
2018-04-12T06:25:35.592Z,157.50
2018-04-12T06:26:35.820Z,163.13
2018-04-12T06:27:36.052Z,168.75
2018-04-12T06:28:36.280Z,168.75
2018-04-12T06:29:36.511Z,180.00
2018-04-12T06:30:36.745Z,185.63
2018-04-12T06:31:36.974Z,196.88
2018-04-12T06:32:37.204Z,208.13
2018-04-12T06:33:37.431Z,213.75
2018-04-12T06:34:37.660Z,225.00
2018-04-12T06:35:37.894Z,225.00
2018-04-12T06:36:38.124Z,230.63
2018-04-12T06:37:38.351Z,230.63
2018-04-12T06:38:38.583Z,236.25
2018-04-12T06:39:38.816Z,236.25
2018-04-12T06:40:39.040Z,241.88
2018-04-12T06:41:39.271Z,241.88
2018-04-12T06:42:39.508Z,247.50
2018-04-12T06:43:39.748Z,247.50
2018-04-12T06:44:39.975Z,253.13
2018-04-12T06:45:40.207Z,264.38
2018-04-12T06:46:40.454Z,298.13
2018-04-12T06:47:40.756Z,331.88
2018-04-12T06:48:40.946Z,360.00
2018-04-12T06:49:41.175Z,376.88
2018-04-12T06:50:41.417Z,399.38
2018-04-12T06:51:41.637Z,393.75
2018-04-12T06:52:41.857Z,376.88
2018-04-12T06:53:42.097Z,371.25
2018-04-12T06:54:42.318Z,360.00
2018-04-12T06:55:42.548Z,348.75
2018-04-12T06:56:42.778Z,348.75
2018-04-12T06:57:43.008Z,343.13
2018-04-12T06:58:43.242Z,393.75
2018-04-12T06:59:43.473Z,472.50
2018-04-12T07:00:43.696Z,438.75
2018-04-12T07:01:43.929Z,433.13
2018-04-12T07:02:44.164Z,433.13
2018-04-12T07:03:44.391Z,410.63
2018-04-12T07:04:44.630Z,393.75
2018-04-12T07:05:44.854Z,410.63
2018-04-12T07:06:45.083Z,421.88
2018-04-12T07:07:45.309Z,405.00
2018-04-12T07:08:45.540Z,416.25
2018-04-12T07:09:45.770Z,427.50
2018-04-12T07:10:46.005Z,421.88
2018-04-12T07:11:46.233Z,393.75
2018-04-12T07:12:46.465Z,376.88
2018-04-12T07:13:46.695Z,444.38
2018-04-12T07:14:46.925Z,478.13
2018-04-12T07:15:47.159Z,483.75
2018-04-12T07:16:47.383Z,511.88
2018-04-12T07:17:47.618Z,556.88
2018-04-12T07:18:47.871Z,573.75
2018-04-12T07:19:48.105Z,585.00
2018-04-12T07:20:48.340Z,590.63
2018-04-12T07:21:48.569Z,601.88
2018-04-12T07:22:48.800Z,596.25
2018-04-12T07:23:49.035Z,585.00
2018-04-12T07:24:49.264Z,596.25
2018-04-12T07:25:49.497Z,613.13
2018-04-12T07:26:49.725Z,618.75
2018-04-12T07:27:49.959Z,618.75
2018-04-12T07:28:50.191Z,630.00
2018-04-12T07:29:50.424Z,630.00
2018-04-12T07:30:50.656Z,618.75
2018-04-12T07:31:50.896Z,579.38
2018-04-12T07:32:51.121Z,601.88
2018-04-12T07:33:51.351Z,590.63
2018-04-12T07:34:51.585Z,579.38
2018-04-12T07:35:51.817Z,562.50
2018-04-12T07:36:52.054Z,551.25
2018-04-12T07:37:52.290Z,523.13
2018-04-12T07:38:52.525Z,517.50
2018-04-12T07:39:52.751Z,523.13
2018-04-12T07:40:52.985Z,545.63
2018-04-12T07:41:53.220Z,517.50
2018-04-12T07:42:53.452Z,495.00
2018-04-12T07:43:53.685Z,466.88
2018-04-12T07:44:53.917Z,466.88
2018-04-12T07:45:54.148Z,466.88
2018-04-12T07:46:54.383Z,421.88
2018-04-12T07:47:54.617Z,421.88
2018-04-12T07:48:54.850Z,438.75
2018-04-12T07:49:55.081Z,410.63
2018-04-12T07:50:55.316Z,388.13
2018-04-12T07:51:55.549Z,343.13
2018-04-12T07:52:55.783Z,326.25
2018-04-12T07:53:56.015Z,315.00
2018-04-12T07:54:56.248Z,315.00
2018-04-12T07:55:56.479Z,343.13
2018-04-12T07:56:56.712Z,360.00
2018-04-12T07:57:56.951Z,360.00
2018-04-12T07:58:57.177Z,405.00
2018-04-12T07:59:57.415Z,382.50
2018-04-12T08:00:57.643Z,354.38
2018-04-12T08:01:57.880Z,298.13
2018-04-12T08:02:58.112Z,275.63
2018-04-12T08:03:58.347Z,275.63
2018-04-12T08:04:58.576Z,298.13
2018-04-12T08:05:58.807Z,371.25
2018-04-12T08:06:59.040Z,444.38
2018-04-12T08:07:59.296Z,489.38
2018-04-12T08:08:59.501Z,483.75
2018-04-12T08:09:59.735Z,466.88
2018-04-12T08:10:59.966Z,472.50
2018-04-12T08:12:00.197Z,466.88
2018-04-12T08:13:00.427Z,461.25
2018-04-12T08:14:00.661Z,455.63
2018-04-12T08:15:00.898Z,466.88
2018-04-12T08:16:01.128Z,466.88
2018-04-12T08:17:01.357Z,472.50
2018-04-12T08:18:01.590Z,466.88
2018-04-12T08:19:01.822Z,433.13
2018-04-12T08:20:02.059Z,461.25
2018-04-12T08:21:02.283Z,478.13
2018-04-12T08:22:02.517Z,461.25
2018-04-12T08:23:02.748Z,478.13
2018-04-12T08:24:02.981Z,399.38
2018-04-12T08:25:03.213Z,455.63
2018-04-12T08:26:03.442Z,444.38
2018-04-12T08:27:03.679Z,450.00
2018-04-12T08:28:03.912Z,433.13
2018-04-12T08:29:04.141Z,405.00
2018-04-12T08:30:04.365Z,405.00
2018-04-12T08:31:04.600Z,405.00
2018-04-12T08:32:04.831Z,393.75
2018-04-12T08:33:05.064Z,388.13
2018-04-12T08:34:05.289Z,376.88
2018-04-12T08:35:05.524Z,354.38
2018-04-12T08:36:05.755Z,309.38
2018-04-12T08:37:05.991Z,292.50
2018-04-12T08:38:06.222Z,270.00
2018-04-12T08:39:06.460Z,309.38
2018-04-12T08:40:06.685Z,281.25
2018-04-12T08:41:06.916Z,241.88
2018-04-12T08:42:07.147Z,315.00
2018-04-12T08:43:07.379Z,365.63
2018-04-12T08:44:07.608Z,393.75
2018-04-12T08:45:07.843Z,410.63
2018-04-12T08:46:08.071Z,416.25
2018-04-12T08:47:08.301Z,421.88
2018-04-12T08:48:08.538Z,427.50
2018-04-12T08:49:08.765Z,433.13
2018-04-12T08:50:08.996Z,433.13
2018-04-12T08:51:09.223Z,405.00
2018-04-12T08:52:09.459Z,433.13
2018-04-12T08:53:09.730Z,433.13
2018-04-12T08:54:09.913Z,433.13
2018-04-12T08:55:10.145Z,427.50
2018-04-12T08:56:10.378Z,421.88
2018-04-12T08:57:10.622Z,416.25
2018-04-12T08:58:10.838Z,410.63
2018-04-12T08:59:11.072Z,405.00
2018-04-12T09:00:11.305Z,405.00
2018-04-12T09:01:11.535Z,399.38
2018-04-12T09:02:11.766Z,399.38
2018-04-12T09:03:12.000Z,393.75
2018-04-12T09:04:12.230Z,393.75
2018-04-12T09:05:12.462Z,393.75
2018-04-12T09:06:12.696Z,393.75
2018-04-12T09:07:12.925Z,388.13
2018-04-12T09:08:13.158Z,388.13
2018-04-12T09:09:13.390Z,388.13
2018-04-12T09:10:13.621Z,382.50
2018-04-12T09:11:13.853Z,376.88
2018-04-12T09:12:14.108Z,382.50
2018-04-12T09:13:14.319Z,376.88
2018-04-12T09:14:14.549Z,371.25
2018-04-12T09:15:14.782Z,365.63
2018-04-12T09:16:15.013Z,365.63
2018-04-12T09:17:15.244Z,360.00
2018-04-12T09:18:15.479Z,360.00
2018-04-12T09:19:15.710Z,360.00
2018-04-12T09:20:15.940Z,360.00
2018-04-12T09:21:16.172Z,360.00
2018-04-12T09:22:16.403Z,354.38
2018-04-12T09:23:16.636Z,348.75
2018-04-12T09:24:16.868Z,348.75
2018-04-12T09:25:17.097Z,348.75
2018-04-12T09:26:17.328Z,348.75
2018-04-12T09:27:17.567Z,348.75
2018-04-12T09:28:17.795Z,348.75
2018-04-12T09:29:18.026Z,343.13
2018-04-12T09:30:18.260Z,343.13
2018-04-12T09:31:18.494Z,343.13
2018-04-12T09:32:18.723Z,343.13
2018-04-12T09:33:18.970Z,343.13
2018-04-12T09:34:19.191Z,331.88
2018-04-12T09:35:19.417Z,320.63
2018-04-12T09:36:19.651Z,292.50
2018-04-12T09:37:19.879Z,292.50
2018-04-12T09:38:20.111Z,298.13
2018-04-12T09:39:20.345Z,275.63
2018-04-12T09:40:20.577Z,286.88
2018-04-12T09:41:20.891Z,326.25
2018-04-12T09:42:21.039Z,354.38
2018-04-12T09:43:21.271Z,354.38
2018-04-12T09:44:21.503Z,298.13
2018-04-12T09:45:21.734Z,281.25
2018-04-12T09:46:21.977Z,286.88
2018-04-12T09:47:22.196Z,331.88
2018-04-12T09:48:22.429Z,365.63
2018-04-12T09:49:22.741Z,365.63
2018-04-12T09:50:22.896Z,360.00
2018-04-12T09:51:23.123Z,360.00
2018-04-12T09:52:23.355Z,354.38
2018-04-12T09:53:23.591Z,348.75
2018-04-12T09:54:23.820Z,348.75
2018-04-12T09:55:24.052Z,343.13
2018-04-12T09:56:24.295Z,343.13
2018-04-12T09:57:24.518Z,337.50
2018-04-12T09:58:24.747Z,337.50
2018-04-12T09:59:24.980Z,337.50
2018-04-12T10:00:25.210Z,337.50
2018-04-12T10:01:25.443Z,331.88
2018-04-12T10:02:25.675Z,331.88
2018-04-12T10:03:25.906Z,331.88
2018-04-12T10:04:26.140Z,331.88
2018-04-12T10:05:26.365Z,331.88
2018-04-12T10:06:26.600Z,326.25
2018-04-12T10:07:26.829Z,326.25
2018-04-12T10:08:27.065Z,326.25
2018-04-12T10:09:27.295Z,326.25
2018-04-12T10:10:27.534Z,326.25
2018-04-12T10:11:27.759Z,326.25
2018-04-12T10:12:27.991Z,331.88
2018-04-12T10:13:28.226Z,326.25
2018-04-12T10:14:28.454Z,326.25
2018-04-12T10:15:28.687Z,326.25
2018-04-12T10:16:28.920Z,326.25
2018-04-12T10:17:29.152Z,320.63
2018-04-12T10:18:29.385Z,320.63
2018-04-12T10:19:29.617Z,326.25
2018-04-12T10:20:29.846Z,320.63
2018-04-12T10:21:30.083Z,320.63
2018-04-12T10:22:30.318Z,320.63
2018-04-12T10:23:30.556Z,320.63
2018-04-12T10:24:30.782Z,320.63
2018-04-12T10:25:31.019Z,315.00
2018-04-12T10:26:31.255Z,309.38
2018-04-12T10:27:31.483Z,315.00
2018-04-12T10:28:31.722Z,315.00
2018-04-12T10:29:31.949Z,315.00
2018-04-12T10:30:32.183Z,315.00
2018-04-12T10:31:32.413Z,315.00
2018-04-12T10:32:32.647Z,309.38
2018-04-12T10:33:32.880Z,315.00
2018-04-12T10:34:33.112Z,303.75
2018-04-12T10:35:33.344Z,303.75
2018-04-12T10:36:33.575Z,309.38
2018-04-12T10:37:33.809Z,303.75
2018-04-12T10:38:34.042Z,309.38
2018-04-12T10:39:34.306Z,315.00
2018-04-12T10:40:34.504Z,315.00
2018-04-12T10:41:34.758Z,320.63
2018-04-12T10:42:34.971Z,320.63
2018-04-12T10:43:35.203Z,326.25
2018-04-12T10:44:35.433Z,320.63
2018-04-12T10:45:35.665Z,326.25
2018-04-12T10:46:35.899Z,331.88
2018-04-12T10:47:36.136Z,343.13
2018-04-12T10:48:36.365Z,343.13
2018-04-12T10:49:36.600Z,331.88
2018-04-12T10:50:36.832Z,331.88
2018-04-12T10:51:37.066Z,326.25
2018-04-12T10:52:37.296Z,337.50
2018-04-12T10:53:37.531Z,348.75
2018-04-12T10:54:37.764Z,354.38
2018-04-12T10:55:37.995Z,371.25
2018-04-12T10:56:38.229Z,410.63
2018-04-12T10:57:38.459Z,416.25
2018-04-12T10:58:38.692Z,433.13
2018-04-12T10:59:38.930Z,421.88
2018-04-12T11:00:39.165Z,410.63
2018-04-12T11:01:39.404Z,405.00
2018-04-12T11:02:39.633Z,399.38
2018-04-12T11:03:39.862Z,405.00
2018-04-12T11:04:40.096Z,399.38
2018-04-12T11:05:40.329Z,416.25
2018-04-12T11:06:40.564Z,421.88
2018-04-12T11:07:40.797Z,450.00
2018-04-12T11:08:41.030Z,450.00
2018-04-12T11:09:41.261Z,444.38
2018-04-12T11:10:41.496Z,438.75
2018-04-12T11:11:41.728Z,444.38
2018-04-12T11:12:41.962Z,438.75
2018-04-12T11:13:42.193Z,421.88
2018-04-12T11:14:42.430Z,399.38
2018-04-12T11:15:42.665Z,393.75
2018-04-12T11:16:42.891Z,393.75
2018-04-12T11:17:43.125Z,388.13
2018-04-12T11:18:43.359Z,393.75
2018-04-12T11:19:43.594Z,388.13
2018-04-12T11:20:43.826Z,382.50
2018-04-12T11:21:44.061Z,388.13
2018-04-12T11:22:44.293Z,376.88
2018-04-12T11:23:44.545Z,371.25
2018-04-12T11:24:44.785Z,365.63
2018-04-12T11:25:45.007Z,360.00
2018-04-12T11:26:45.230Z,354.38
2018-04-12T11:27:45.462Z,354.38
2018-04-12T11:28:45.695Z,354.38
2018-04-12T11:29:45.957Z,354.38
2018-04-12T11:30:46.162Z,348.75
2018-04-12T11:31:46.404Z,331.88
2018-04-12T11:32:46.631Z,281.25
2018-04-12T11:33:46.863Z,309.38
2018-04-12T11:34:47.109Z,320.63
2018-04-12T11:35:47.329Z,326.25
2018-04-12T11:36:47.566Z,326.25
2018-04-12T11:37:47.798Z,331.88
2018-04-12T11:38:48.035Z,337.50
2018-04-12T11:39:48.265Z,337.50
2018-04-12T11:40:48.497Z,337.50
2018-04-12T11:41:48.732Z,331.88
2018-04-12T11:42:49.018Z,331.88
2018-04-12T11:43:49.197Z,326.25
2018-04-12T11:44:49.433Z,326.25
2018-04-12T11:45:49.667Z,320.63
2018-04-12T11:46:49.927Z,320.63
2018-04-12T11:47:50.143Z,320.63
2018-04-12T11:48:50.371Z,320.63
2018-04-12T11:49:50.629Z,320.63
2018-04-12T11:50:50.836Z,320.63
2018-04-12T11:51:51.070Z,320.63
2018-04-12T11:52:51.310Z,315.00
2018-04-12T11:53:51.540Z,315.00
2018-04-12T11:54:51.772Z,309.38
2018-04-12T11:55:52.008Z,298.13
2018-04-12T11:56:52.244Z,309.38
2018-04-12T11:57:52.471Z,286.88
2018-04-12T11:58:52.703Z,309.38
2018-04-12T11:59:52.944Z,315.00
2018-04-12T12:00:53.175Z,326.25
2018-04-12T12:01:53.409Z,337.50
2018-04-12T12:02:53.642Z,348.75
2018-04-12T12:03:53.877Z,343.13
2018-04-12T12:04:54.111Z,354.38
2018-04-12T12:05:54.346Z,354.38
2018-04-12T12:06:54.594Z,354.38
2018-04-12T12:07:54.821Z,354.38
2018-04-12T12:08:55.056Z,348.75
2018-04-12T12:09:55.289Z,354.38
2018-04-12T12:10:55.524Z,337.50
2018-04-12T12:11:55.766Z,343.13
2018-04-12T12:12:55.999Z,331.88
2018-04-12T12:13:56.234Z,326.25
2018-04-12T12:14:56.467Z,365.63
2018-04-12T12:15:56.697Z,371.25
2018-04-12T12:16:56.945Z,393.75
2018-04-12T12:17:57.183Z,405.00
2018-04-12T12:18:57.413Z,427.50
2018-04-12T12:19:57.646Z,399.38
2018-04-12T12:20:57.885Z,433.13
2018-04-12T12:21:58.120Z,399.38
2018-04-12T12:22:58.360Z,399.38
2018-04-12T12:23:58.586Z,421.88
2018-04-12T12:24:58.827Z,410.63
2018-04-12T12:25:59.060Z,393.75
2018-04-12T12:26:59.295Z,416.25
2018-04-12T12:27:59.528Z,405.00
2018-04-12T12:28:59.761Z,410.63
2018-04-12T12:29:59.999Z,410.63
2018-04-12T12:31:00.232Z,410.63
2018-04-12T12:32:00.474Z,461.25
2018-04-12T12:33:00.701Z,450.00
2018-04-12T12:34:00.935Z,472.50
2018-04-12T12:35:01.174Z,478.13
2018-04-12T12:36:01.415Z,478.13
2018-04-12T12:37:01.651Z,495.00
2018-04-12T12:38:01.881Z,472.50
2018-04-12T12:39:02.122Z,472.50
2018-04-12T12:40:02.359Z,478.13
2018-04-12T12:41:02.592Z,517.50
2018-04-12T12:42:02.828Z,528.75
2018-04-12T12:43:03.069Z,506.25
2018-04-12T12:44:03.306Z,506.25
2018-04-12T12:45:03.541Z,511.88
2018-04-12T12:46:03.775Z,534.38
2018-04-12T12:47:04.021Z,528.75
2018-04-12T12:48:04.244Z,540.00
2018-04-12T12:49:04.479Z,523.13
2018-04-12T12:50:04.717Z,590.63